createdAt,value
2022-08-08T00:00:52.904Z,99.90
2022-08-08T00:02:31.522Z,99.90
2022-08-08T00:04:02.951Z,99.90
2022-08-08T00:06:02.981Z,99.90
2022-08-08T00:07:35.949Z,99.90
2022-08-08T00:09:12.193Z,99.90
2022-08-08T00:11:02.127Z,99.90
2022-08-08T00:12:38.103Z,99.90
2022-08-08T00:14:47.954Z,99.90
2022-08-08T00:16:37.478Z,99.90
2022-08-08T00:18:41.496Z,99.90
2022-08-08T00:20:14.686Z,99.90
2022-08-08T00:21:47.206Z,99.90
2022-08-08T00:23:43.098Z,99.90
2022-08-08T00:25:15.979Z,99.90
2022-08-08T00:26:46.028Z,99.90
2022-08-08T00:28:33.974Z,99.90
2022-08-08T00:30:02.237Z,99.90
2022-08-08T00:32:15.472Z,99.90
2022-08-08T00:33:24.086Z,99.90
2022-08-08T00:35:23.676Z,99.90
2022-08-08T00:36:55.858Z,99.90
2022-08-08T00:38:51.466Z,99.90
2022-08-08T00:41:09.169Z,99.90
2022-08-08T00:42:47.762Z,99.90
2022-08-08T00:45:03.257Z,99.90
2022-08-08T00:47:14.295Z,99.90
2022-08-08T00:49:21.913Z,99.90
2022-08-08T00:51:07.689Z,99.90
2022-08-08T00:52:54.121Z,99.90
2022-08-08T00:54:28.798Z,99.90
2022-08-08T00:55:59.193Z,99.90
2022-08-08T00:57:34.502Z,99.90
2022-08-08T00:59:43.615Z,99.90
2022-08-08T01:01:29.294Z,99.90
2022-08-08T01:04:02.216Z,99.90
2022-08-08T01:05:03.973Z,99.90
2022-08-08T01:07:05.921Z,99.90
2022-08-08T01:08:52.949Z,99.90
2022-08-08T01:10:33.981Z,99.90
2022-08-08T01:12:14.167Z,99.90
2022-08-08T01:13:58.417Z,99.90
2022-08-08T01:15:43.815Z,99.90
2022-08-08T01:17:53.267Z,99.90
2022-08-08T01:20:06.946Z,99.90
2022-08-08T01:22:13.505Z,99.90
2022-08-08T01:24:05.626Z,99.90
2022-08-08T01:25:47.980Z,99.90
2022-08-08T01:27:33.035Z,99.90
2022-08-08T01:29:59.337Z,99.90
2022-08-08T01:32:05.808Z,99.90
2022-08-08T01:34:07.287Z,99.90
2022-08-08T01:36:01.091Z,99.90
2022-08-08T01:37:58.268Z,99.90
2022-08-08T01:39:44.107Z,99.90
2022-08-08T01:41:16.155Z,99.90
2022-08-08T01:42:41.340Z,99.90
2022-08-08T01:44:53.303Z,99.90
2022-08-08T01:46:35.305Z,99.90
2022-08-08T01:48:16.469Z,99.90
2022-08-08T01:50:19.974Z,99.90
2022-08-08T01:53:28.916Z,99.90
2022-08-08T01:55:17.849Z,99.90
2022-08-08T01:56:30.490Z,99.90
2022-08-08T01:58:38.871Z,99.90
2022-08-08T02:00:26.211Z,99.90
2022-08-08T02:02:09.331Z,99.90
2022-08-08T02:03:59.422Z,99.90
2022-08-08T02:05:55.688Z,99.90
2022-08-08T02:07:41.956Z,99.90
2022-08-08T02:10:02.390Z,99.90
2022-08-08T02:11:23.578Z,99.90
2022-08-08T02:12:55.610Z,99.90
2022-08-08T02:14:33.082Z,99.90
2022-08-08T02:16:09.802Z,99.90
2022-08-08T02:17:50.463Z,99.90
2022-08-08T02:20:07.189Z,99.90
2022-08-08T02:21:41.696Z,99.90
2022-08-08T02:23:05.537Z,99.90
2022-08-08T02:24:50.693Z,99.90
2022-08-08T02:26:38.947Z,99.90
2022-08-08T02:28:08.651Z,99.90
2022-08-08T02:29:46.909Z,99.90
2022-08-08T02:31:58.249Z,99.90
2022-08-08T02:34:00.302Z,99.90
2022-08-08T02:36:02.460Z,99.90
2022-08-08T02:37:51.857Z,99.90
2022-08-08T02:39:42.080Z,99.90
2022-08-08T02:41:03.287Z,99.90
2022-08-08T02:44:35.990Z,99.90
2022-08-08T02:45:04.069Z,99.90
2022-08-08T02:46:31.815Z,99.90
2022-08-08T02:48:35.572Z,99.90
2022-08-08T02:50:17.982Z,99.90
2022-08-08T02:51:59.129Z,99.90
2022-08-08T02:53:54.956Z,99.90
2022-08-08T02:55:59.936Z,99.90
2022-08-08T02:57:47.185Z,99.90
2022-08-08T02:59:57.986Z,99.90
2022-08-08T03:02:33.135Z,99.90
2022-08-08T03:05:05.457Z,99.90
2022-08-08T03:06:07.706Z,99.90
2022-08-08T03:08:08.929Z,99.90
2022-08-08T03:09:42.896Z,99.90
2022-08-08T03:11:13.823Z,99.90
2022-08-08T03:15:53.900Z,99.90
2022-08-08T03:16:01.434Z,99.90
2022-08-08T03:16:58.647Z,99.90
2022-08-08T03:18:52.215Z,99.90
2022-08-08T03:20:15.511Z,99.90
2022-08-08T03:21:54.880Z,99.90
2022-08-08T03:23:22.085Z,99.90
2022-08-08T03:24:46.534Z,99.90
2022-08-08T03:26:08.852Z,99.90
2022-08-08T03:27:41.984Z,99.90
2022-08-08T03:29:16.769Z,99.90
2022-08-08T03:30:48.842Z,99.90
2022-08-08T03:32:30.791Z,99.90
2022-08-08T03:33:55.079Z,99.90
2022-08-08T03:35:27.189Z,99.90
2022-08-08T03:36:55.275Z,99.90
2022-08-08T03:38:57.942Z,99.90
2022-08-08T03:40:06.124Z,99.90
2022-08-08T03:42:11.794Z,99.90
2022-08-08T03:43:20.166Z,99.90
2022-08-08T03:44:47.801Z,99.90
2022-08-08T03:46:14.428Z,99.90
2022-08-08T03:47:45.419Z,99.90
2022-08-08T03:50:00.793Z,99.90
2022-08-08T03:51:00.209Z,99.90
2022-08-08T03:52:22.395Z,99.90
2022-08-08T03:53:47.693Z,99.90
2022-08-08T03:55:56.720Z,99.90
2022-08-08T03:56:58.050Z,99.90
2022-08-08T03:58:35.647Z,99.90
2022-08-08T04:00:11.248Z,99.90
2022-08-08T04:02:12.265Z,99.90
2022-08-08T04:03:57.002Z,99.90
2022-08-08T04:05:10.275Z,99.90
2022-08-08T04:06:32.865Z,99.90
2022-08-08T04:07:55.649Z,99.90
2022-08-08T04:09:17.790Z,99.90
2022-08-08T04:10:40.295Z,99.90
2022-08-08T04:12:07.538Z,99.90
2022-08-08T04:14:04.071Z,99.90
2022-08-08T04:15:16.262Z,99.90
2022-08-08T04:16:41.016Z,99.90
2022-08-08T04:18:03.618Z,99.90
2022-08-08T04:19:25.723Z,99.90
2022-08-08T04:20:48.407Z,99.90
2022-08-08T04:22:11.024Z,99.90
2022-08-08T04:24:12.260Z,99.90
2022-08-08T04:25:17.922Z,99.90
2022-08-08T04:26:57.252Z,99.90
2022-08-08T04:28:40.466Z,99.90
2022-08-08T04:30:17.419Z,99.90
2022-08-08T04:31:59.791Z,99.90
2022-08-08T04:33:22.384Z,99.90
2022-08-08T04:34:56.046Z,99.90
2022-08-08T04:36:20.803Z,99.90
2022-08-08T04:37:42.940Z,99.90
2022-08-08T04:40:03.379Z,99.90
2022-08-08T04:40:51.763Z,99.90
2022-08-08T04:42:17.166Z,99.90
2022-08-08T04:43:46.196Z,99.90
2022-08-08T04:45:12.497Z,99.90
2022-08-08T04:46:36.120Z,99.90
2022-08-08T04:48:01.882Z,99.90
2022-08-08T04:49:28.885Z,99.90
2022-08-08T04:51:07.762Z,99.90
2022-08-08T04:52:35.050Z,99.90
2022-08-08T04:54:39.544Z,99.90
2022-08-08T04:55:55.136Z,99.90
2022-08-08T04:57:18.236Z,99.90
2022-08-08T04:58:41.563Z,99.90
2022-08-08T05:00:07.742Z,98.80
2022-08-08T05:01:35.638Z,98.00
2022-08-08T05:03:12.601Z,97.80
2022-08-08T05:04:35.460Z,98.00
2022-08-08T05:05:57.566Z,98.40
2022-08-08T05:07:23.395Z,98.70
2022-08-08T05:08:46.075Z,99.10
2022-08-08T05:10:14.141Z,98.80
2022-08-08T05:11:39.342Z,97.80
2022-08-08T05:13:02.933Z,97.10
2022-08-08T05:14:25.181Z,95.30
2022-08-08T05:16:51.149Z,94.10
2022-08-08T05:17:53.853Z,93.80
2022-08-08T05:20:12.763Z,93.10
2022-08-08T05:20:56.839Z,92.20
2022-08-08T05:22:20.942Z,91.30
2022-08-08T05:23:46.061Z,91.10
2022-08-08T05:25:08.893Z,91.20
2022-08-08T05:26:31.429Z,91.80
2022-08-08T05:27:54.762Z,92.20
2022-08-08T05:29:17.284Z,92.60
2022-08-08T05:30:39.991Z,93.00
2022-08-08T05:32:09.860Z,93.30
2022-08-08T05:33:44.211Z,93.70
2022-08-08T05:35:14.563Z,94.20
2022-08-08T05:38:00.847Z,94.70
2022-08-08T05:39:25.185Z,94.80
2022-08-08T05:40:57.505Z,95.00
2022-08-08T05:42:30.015Z,95.20
2022-08-08T05:44:04.645Z,95.40
2022-08-08T05:45:41.746Z,95.60
2022-08-08T05:47:10.868Z,95.60
2022-08-08T05:48:38.102Z,95.80
2022-08-08T05:50:03.829Z,95.30
2022-08-08T05:51:27.831Z,94.60
2022-08-08T05:53:53.942Z,93.90
2022-08-08T05:54:55.743Z,93.50
2022-08-08T05:56:24.662Z,93.20
2022-08-08T05:58:04.194Z,93.50
2022-08-08T05:59:58.658Z,93.80
2022-08-08T06:01:14.382Z,93.90
2022-08-08T06:03:17.472Z,94.20
2022-08-08T06:04:54.956Z,94.30
2022-08-08T06:06:18.924Z,94.70
2022-08-08T06:07:48.360Z,94.70
2022-08-08T06:09:41.518Z,94.40
2022-08-08T06:10:58.069Z,94.00
2022-08-08T06:12:30.097Z,94.00
2022-08-08T06:13:53.386Z,94.10
2022-08-08T06:15:16.726Z,94.00
2022-08-08T06:16:42.012Z,93.90
2022-08-08T06:18:20.344Z,93.80
2022-08-08T06:19:43.988Z,94.00
2022-08-08T06:21:27.895Z,94.20
2022-08-08T06:22:50.078Z,94.10
2022-08-08T06:24:14.047Z,94.30
2022-08-08T06:26:38.774Z,94.20
2022-08-08T06:27:34.026Z,93.70
2022-08-08T06:29:48.886Z,93.60
2022-08-08T06:30:55.523Z,93.80
2022-08-08T06:32:19.514Z,93.90
2022-08-08T06:34:25.912Z,93.90
2022-08-08T06:36:07.094Z,93.80
2022-08-08T06:37:26.940Z,93.40
2022-08-08T06:38:52.437Z,93.50
2022-08-08T06:40:16.875Z,93.50
2022-08-08T06:41:50.908Z,93.50
2022-08-08T06:43:18.974Z,93.70
2022-08-08T06:44:42.734Z,93.80
2022-08-08T06:46:08.686Z,93.90
2022-08-08T06:47:33.795Z,94.10
2022-08-08T06:49:14.339Z,94.00
2022-08-08T06:50:38.777Z,94.00
2022-08-08T06:52:01.818Z,93.90
2022-08-08T06:53:25.873Z,94.00
2022-08-08T06:55:01.999Z,94.10
2022-08-08T06:56:25.053Z,93.80
2022-08-08T06:57:56.045Z,93.80
2022-08-08T06:59:19.884Z,93.50
2022-08-08T07:00:47.972Z,92.90
2022-08-08T07:02:28.928Z,93.20
2022-08-08T07:04:40.564Z,91.90
2022-08-08T07:06:02.214Z,91.20
2022-08-08T07:07:53.261Z,91.60
2022-08-08T07:09:20.912Z,91.30
2022-08-08T07:10:50.341Z,91.30
2022-08-08T07:12:24.700Z,91.00
2022-08-08T07:14:00.563Z,90.70
2022-08-08T07:16:05.285Z,90.10
2022-08-08T07:17:40.189Z,90.40
2022-08-08T07:19:21.839Z,90.50
2022-08-08T07:20:50.851Z,90.60
2022-08-08T07:22:19.334Z,89.50
2022-08-08T07:24:01.345Z,88.50
2022-08-08T07:25:31.834Z,88.70
2022-08-08T07:26:55.293Z,89.10
2022-08-08T07:28:20.277Z,88.30
2022-08-08T07:30:02.560Z,88.40
2022-08-08T07:31:25.931Z,88.70
2022-08-08T07:32:49.925Z,89.20
2022-08-08T07:34:20.092Z,89.40
2022-08-08T07:35:51.405Z,89.30
2022-08-08T07:37:18.440Z,89.50
2022-08-08T07:38:49.171Z,89.00
2022-08-08T07:40:29.210Z,88.60
2022-08-08T07:42:04.100Z,83.70
2022-08-08T07:43:36.940Z,84.60
2022-08-08T07:44:59.802Z,84.70
2022-08-08T07:46:30.228Z,83.90
2022-08-08T07:47:54.798Z,84.60
2022-08-08T07:49:17.224Z,84.20
2022-08-08T07:50:39.630Z,84.40
2022-08-08T07:52:04.565Z,85.30
2022-08-08T07:54:01.061Z,86.10
2022-08-08T07:55:30.675Z,84.00
2022-08-08T07:57:03.076Z,84.10
2022-08-08T07:58:37.531Z,84.10
2022-08-08T08:00:16.223Z,83.70
2022-08-08T08:02:34.550Z,83.80
2022-08-08T08:03:52.990Z,84.20
2022-08-08T08:05:32.997Z,84.80
2022-08-08T08:06:59.916Z,84.70
2022-08-08T08:09:00.531Z,83.80
2022-08-08T08:10:30.755Z,85.10
2022-08-08T08:11:56.663Z,85.30
2022-08-08T08:13:42.505Z,84.80
2022-08-08T08:15:17.167Z,85.60
2022-08-08T08:16:41.835Z,86.90
2022-08-08T08:18:14.412Z,87.30
2022-08-08T08:19:45.510Z,86.90
2022-08-08T08:21:18.639Z,86.20
2022-08-08T08:22:41.401Z,86.60
2022-08-08T08:24:05.681Z,86.20
2022-08-08T08:25:41.000Z,86.40
2022-08-08T08:27:09.429Z,86.60
2022-08-08T08:28:31.677Z,87.10
2022-08-08T08:29:54.082Z,87.40
2022-08-08T08:31:19.788Z,87.40
2022-08-08T08:32:50.975Z,86.60
2022-08-08T08:34:14.492Z,86.60
2022-08-08T08:36:19.845Z,86.70
2022-08-08T08:37:32.858Z,86.30
2022-08-08T08:38:55.510Z,85.80
2022-08-08T08:40:18.967Z,85.90
2022-08-08T08:41:43.370Z,84.90
2022-08-08T08:43:15.321Z,85.20
2022-08-08T08:44:41.182Z,85.40
2022-08-08T08:46:10.358Z,85.00
2022-08-08T08:47:44.640Z,85.10
2022-08-08T08:49:08.536Z,85.80
2022-08-08T08:50:34.910Z,86.10
2022-08-08T08:52:02.026Z,85.40
2022-08-08T08:53:27.585Z,85.00
2022-08-08T08:55:16.171Z,85.10
2022-08-08T08:56:43.483Z,85.50
2022-08-08T08:58:11.022Z,86.20
2022-08-08T08:59:59.951Z,86.00
2022-08-08T09:01:26.532Z,86.20
2022-08-08T09:02:51.682Z,85.20
2022-08-08T09:04:30.154Z,85.30
2022-08-08T09:05:56.228Z,85.30
2022-08-08T09:07:22.880Z,85.00
2022-08-08T09:08:49.802Z,84.40
2022-08-08T09:10:17.431Z,84.30
2022-08-08T09:11:47.227Z,84.10
2022-08-08T09:13:16.701Z,83.70
2022-08-08T09:14:42.593Z,83.10
2022-08-08T09:16:07.015Z,83.40
2022-08-08T09:17:40.677Z,84.10
2022-08-08T09:19:04.304Z,83.00
2022-08-08T09:21:57.372Z,83.20
2022-08-08T09:22:13.312Z,83.20
2022-08-08T09:23:48.746Z,82.50
2022-08-08T09:25:11.683Z,81.00
2022-08-08T09:27:02.731Z,81.50
2022-08-08T09:28:37.244Z,80.70
2022-08-08T09:30:14.815Z,80.10
2022-08-08T09:31:57.483Z,80.60
2022-08-08T09:34:14.604Z,80.60
2022-08-08T09:35:10.647Z,80.70
2022-08-08T09:36:40.434Z,81.20
2022-08-08T09:38:53.099Z,81.60
2022-08-08T09:40:20.140Z,81.50
2022-08-08T09:42:14.105Z,81.50
2022-08-08T09:43:41.077Z,81.90
2022-08-08T09:45:54.825Z,82.00
2022-08-08T09:48:02.153Z,82.40
2022-08-08T09:48:50.372Z,82.60
2022-08-08T09:50:15.922Z,82.50
2022-08-08T09:52:01.853Z,82.00
2022-08-08T09:53:53.258Z,81.90
2022-08-08T09:55:12.765Z,81.90
2022-08-08T09:56:45.487Z,82.20
2022-08-08T09:58:27.685Z,81.30
2022-08-08T10:00:34.218Z,81.30
2022-08-08T10:02:03.163Z,81.50
2022-08-08T10:03:39.643Z,80.50
2022-08-08T10:05:25.639Z,80.70
2022-08-08T10:06:52.886Z,80.50
2022-08-08T10:08:16.005Z,80.90
2022-08-08T10:09:59.747Z,81.80
2022-08-08T10:12:25.855Z,81.00
2022-08-08T10:13:32.181Z,80.30
2022-08-08T10:15:01.510Z,79.80
2022-08-08T10:16:23.809Z,80.10
2022-08-08T10:18:05.898Z,80.50
2022-08-08T10:19:57.212Z,80.60
2022-08-08T10:21:26.026Z,81.30
2022-08-08T10:23:01.318Z,80.70
2022-08-08T10:24:28.548Z,80.70
2022-08-08T10:25:56.969Z,80.40
2022-08-08T10:27:22.472Z,80.00
2022-08-08T10:29:11.472Z,80.20
2022-08-08T10:30:59.625Z,79.60
2022-08-08T10:32:39.086Z,80.20
2022-08-08T10:34:18.507Z,79.70
2022-08-08T10:36:19.937Z,80.20
2022-08-08T10:37:28.587Z,79.50
2022-08-08T10:38:57.931Z,79.10
2022-08-08T10:40:21.007Z,79.80
2022-08-08T10:41:58.879Z,79.30
2022-08-08T10:43:43.121Z,78.80
2022-08-08T10:45:08.071Z,78.10
2022-08-08T10:46:32.007Z,78.20
2022-08-08T10:47:58.992Z,78.60
2022-08-08T10:50:00.047Z,78.80
2022-08-08T10:51:13.314Z,78.00
2022-08-08T10:52:39.521Z,78.10
2022-08-08T10:54:02.334Z,78.70
2022-08-08T10:55:40.769Z,78.90
2022-08-08T10:57:05.545Z,79.20
2022-08-08T10:58:31.063Z,80.50
2022-08-08T10:59:59.132Z,80.70
2022-08-08T11:01:22.011Z,80.40
2022-08-08T11:02:44.642Z,80.30
2022-08-08T11:04:12.255Z,81.00
2022-08-08T11:05:42.537Z,81.50
2022-08-08T11:07:04.924Z,81.10
2022-08-08T11:08:31.394Z,81.40
2022-08-08T11:10:08.001Z,81.80
2022-08-08T11:12:04.504Z,82.60
2022-08-08T11:13:31.734Z,82.30
2022-08-08T11:15:00.009Z,82.50
2022-08-08T11:16:33.016Z,82.40
2022-08-08T11:17:58.212Z,82.30
2022-08-08T11:19:26.947Z,82.10
2022-08-08T11:20:52.367Z,82.00
2022-08-08T11:22:16.938Z,81.10
2022-08-08T11:23:42.713Z,81.10
2022-08-08T11:25:14.371Z,80.70
2022-08-08T11:26:53.794Z,80.40
2022-08-08T11:28:29.346Z,80.60
2022-08-08T11:30:04.145Z,80.70
2022-08-08T11:31:48.286Z,80.90
2022-08-08T11:33:12.297Z,80.10
2022-08-08T11:34:52.590Z,79.50
2022-08-08T11:36:22.011Z,79.90
2022-08-08T11:38:34.510Z,79.80
2022-08-08T11:39:27.020Z,79.60
2022-08-08T11:41:00.934Z,79.80
2022-08-08T11:42:26.955Z,79.40
2022-08-08T11:43:58.044Z,79.30
2022-08-08T11:45:22.907Z,79.70
2022-08-08T11:46:45.727Z,79.70
2022-08-08T11:48:20.309Z,80.00
2022-08-08T11:49:44.776Z,79.10
2022-08-08T11:51:38.897Z,79.30
2022-08-08T11:52:56.760Z,80.00
2022-08-08T11:54:42.292Z,80.50
2022-08-08T11:56:22.385Z,81.20
2022-08-08T11:57:45.006Z,82.20
2022-08-08T11:59:13.935Z,82.60
2022-08-08T12:00:53.319Z,83.20
2022-08-08T12:02:31.902Z,83.60
2022-08-08T12:03:59.461Z,83.60
2022-08-08T12:05:36.901Z,83.50
2022-08-08T12:07:07.980Z,84.20
2022-08-08T12:08:40.154Z,84.00
2022-08-08T12:10:16.385Z,83.90
2022-08-08T12:11:42.350Z,84.00
2022-08-08T12:13:10.366Z,84.10
2022-08-08T12:14:32.616Z,85.00
2022-08-08T12:16:16.971Z,85.60
2022-08-08T12:17:50.731Z,85.50
2022-08-08T12:19:13.800Z,85.50
2022-08-08T12:20:40.244Z,86.00
2022-08-08T12:22:09.422Z,86.00
2022-08-08T12:23:42.932Z,85.00
2022-08-08T12:25:31.122Z,85.40
2022-08-08T12:26:54.469Z,86.40
2022-08-08T12:28:20.806Z,87.10
2022-08-08T12:30:02.066Z,87.00
2022-08-08T12:31:38.975Z,87.20
2022-08-08T12:33:37.894Z,87.10
2022-08-08T12:35:20.038Z,86.30
2022-08-08T12:36:46.566Z,86.90
2022-08-08T12:38:16.594Z,87.30
2022-08-08T12:40:00.722Z,87.70
2022-08-08T12:41:35.217Z,87.60
2022-08-08T12:43:05.374Z,86.90
2022-08-08T12:44:32.913Z,87.10
2022-08-08T12:46:02.815Z,87.40
2022-08-08T12:47:56.265Z,87.60
2022-08-08T12:49:25.242Z,87.90
2022-08-08T12:50:57.615Z,88.40
2022-08-08T12:52:28.564Z,87.70
2022-08-08T12:54:02.070Z,88.60
2022-08-08T12:55:31.931Z,88.30
2022-08-08T12:57:21.175Z,88.90
2022-08-08T12:58:46.687Z,88.70
2022-08-08T13:00:12.277Z,89.10
2022-08-08T13:01:38.683Z,89.70
2022-08-08T13:03:01.962Z,89.80
2022-08-08T13:04:30.290Z,89.80
2022-08-08T13:06:14.467Z,90.10
2022-08-08T13:08:04.465Z,90.10
2022-08-08T13:09:43.020Z,90.10
2022-08-08T13:12:19.853Z,89.60
2022-08-08T13:13:34.626Z,90.00
2022-08-08T13:15:00.655Z,90.30
2022-08-08T13:16:25.505Z,90.10
2022-08-08T13:18:07.872Z,89.90
2022-08-08T13:19:49.895Z,89.70
2022-08-08T13:21:16.443Z,89.70
2022-08-08T13:22:38.825Z,89.50
2022-08-08T13:24:01.695Z,89.30
2022-08-08T13:25:23.769Z,89.20
2022-08-08T13:26:45.858Z,89.30
2022-08-08T13:28:12.078Z,89.80
2022-08-08T13:29:40.673Z,90.00
2022-08-08T13:31:04.745Z,89.80
2022-08-08T13:32:30.322Z,90.00
2022-08-08T13:33:54.741Z,90.00
2022-08-08T13:35:24.689Z,90.10
2022-08-08T13:36:53.653Z,90.00
2022-08-08T13:38:18.574Z,90.10
2022-08-08T13:39:40.852Z,90.30
2022-08-08T13:41:05.911Z,90.50
2022-08-08T13:42:28.644Z,90.50
2022-08-08T13:43:51.267Z,90.50
2022-08-08T13:45:14.982Z,90.80
2022-08-08T13:46:37.231Z,91.00
2022-08-08T13:48:00.233Z,91.10
2022-08-08T13:50:39.455Z,91.50
2022-08-08T13:51:34.145Z,91.20
2022-08-08T13:52:51.125Z,91.20
2022-08-08T13:54:22.538Z,90.80
2022-08-08T13:56:02.408Z,91.10
2022-08-08T13:58:03.411Z,91.00
2022-08-08T13:59:16.405Z,91.50
2022-08-08T14:00:45.070Z,91.80
2022-08-08T14:02:32.921Z,91.60
2022-08-08T14:04:00.580Z,91.80
2022-08-08T14:05:34.359Z,91.50
2022-08-08T14:06:59.477Z,91.40
2022-08-08T14:08:29.889Z,91.10
2022-08-08T14:10:33.556Z,90.90
2022-08-08T14:12:00.305Z,91.10
2022-08-08T14:13:33.314Z,91.00
2022-08-08T14:14:56.595Z,91.00
2022-08-08T14:16:20.430Z,90.90
2022-08-08T14:17:57.695Z,90.90
2022-08-08T14:19:56.973Z,90.90
2022-08-08T14:21:20.538Z,90.60
2022-08-08T14:22:45.785Z,90.50
2022-08-08T14:24:13.402Z,90.60
2022-08-08T14:25:58.357Z,90.60
2022-08-08T14:27:28.816Z,90.80
2022-08-08T14:28:58.767Z,90.70
2022-08-08T14:30:21.391Z,91.00
2022-08-08T14:32:08.974Z,91.20
2022-08-08T14:33:34.129Z,91.10
2022-08-08T14:35:06.772Z,91.20
2022-08-08T14:36:40.487Z,91.20
2022-08-08T14:38:33.961Z,91.20
2022-08-08T14:40:06.458Z,91.00
2022-08-08T14:41:45.450Z,91.00
2022-08-08T14:43:31.698Z,91.10
2022-08-08T14:45:00.378Z,91.20
2022-08-08T14:46:32.501Z,91.10
2022-08-08T14:47:58.106Z,91.30
2022-08-08T14:49:32.046Z,91.40
2022-08-08T14:51:06.865Z,91.00
2022-08-08T14:52:52.879Z,90.90
2022-08-08T14:54:21.695Z,91.10
2022-08-08T14:56:02.049Z,90.90
2022-08-08T14:58:02.320Z,90.70
2022-08-08T14:59:31.730Z,90.60
2022-08-08T15:01:00.077Z,90.60
2022-08-08T15:02:30.586Z,90.40
2022-08-08T15:03:53.752Z,90.40
2022-08-08T15:05:34.010Z,90.20
2022-08-08T15:07:23.063Z,89.40
2022-08-08T15:08:57.186Z,89.70
2022-08-08T15:10:22.457Z,90.00
2022-08-08T15:11:53.372Z,89.90
2022-08-08T15:13:15.804Z,89.90
2022-08-08T15:14:41.126Z,90.20
2022-08-08T15:16:04.416Z,90.20
2022-08-08T15:17:27.109Z,90.00
2022-08-08T15:18:49.990Z,90.00
2022-08-08T15:20:15.399Z,90.00
2022-08-08T15:21:42.838Z,90.10
2022-08-08T15:23:05.383Z,90.20
2022-08-08T15:24:31.274Z,90.30
2022-08-08T15:25:55.024Z,90.40
2022-08-08T15:27:58.403Z,90.60
2022-08-08T15:29:00.949Z,90.60
2022-08-08T15:30:24.704Z,90.40
2022-08-08T15:32:17.296Z,90.30
2022-08-08T15:33:38.625Z,90.10
2022-08-08T15:35:16.288Z,90.10
2022-08-08T15:36:39.644Z,89.90
2022-08-08T15:38:09.802Z,89.20
2022-08-08T15:39:37.948Z,89.70
2022-08-08T15:41:02.022Z,89.70
2022-08-08T15:42:32.307Z,90.00
2022-08-08T15:44:01.143Z,90.10
2022-08-08T15:45:23.665Z,90.20
2022-08-08T15:46:52.200Z,90.10
2022-08-08T15:48:16.571Z,90.40
2022-08-08T15:49:42.789Z,90.20
2022-08-08T15:51:06.993Z,90.10
2022-08-08T15:52:29.914Z,90.00
2022-08-08T15:53:55.315Z,90.10
2022-08-08T15:55:17.705Z,90.30
2022-08-08T15:56:42.683Z,90.30
2022-08-08T15:58:04.850Z,90.40
2022-08-08T16:00:06.225Z,90.40
2022-08-08T16:01:09.478Z,90.20
2022-08-08T16:02:32.251Z,90.10
2022-08-08T16:03:55.094Z,90.10
2022-08-08T16:05:17.334Z,90.20
2022-08-08T16:06:46.051Z,90.30
2022-08-08T16:08:12.335Z,89.70
2022-08-08T16:13:05.866Z,89.90
2022-08-08T16:13:10.889Z,90.10
2022-08-08T16:13:11.730Z,90.00
2022-08-08T16:14:52.822Z,89.90
2022-08-08T16:16:18.153Z,90.00
2022-08-08T16:18:06.657Z,89.60
2022-08-08T16:19:23.563Z,89.30
2022-08-08T16:20:46.544Z,89.60
2022-08-08T16:22:30.248Z,89.90
2022-08-08T16:23:55.308Z,89.80
2022-08-08T16:25:19.854Z,90.00
2022-08-08T16:26:43.724Z,90.10
2022-08-08T16:28:08.162Z,90.10
2022-08-08T16:30:13.587Z,90.30
2022-08-08T16:31:32.530Z,90.40
2022-08-08T16:32:54.683Z,90.30
2022-08-08T16:34:20.922Z,90.30
2022-08-08T16:35:43.229Z,90.50
2022-08-08T16:37:11.895Z,90.90
2022-08-08T16:38:44.636Z,90.80
2022-08-08T16:40:07.856Z,90.60
2022-08-08T16:41:34.559Z,90.50
2022-08-08T16:42:56.922Z,90.20
2022-08-08T16:44:27.782Z,89.80
2022-08-08T16:46:44.083Z,90.00
2022-08-08T16:47:41.995Z,90.00
2022-08-08T16:49:04.868Z,90.00
2022-08-08T16:50:27.022Z,90.20
2022-08-08T16:55:04.695Z,90.20
2022-08-08T16:55:24.038Z,90.20
2022-08-08T16:55:42.552Z,89.60
2022-08-08T16:57:03.543Z,90.10
2022-08-08T16:58:38.016Z,90.50
2022-08-08T17:00:01.834Z,90.30
2022-08-08T17:01:35.436Z,90.10
2022-08-08T17:02:57.943Z,90.10
2022-08-08T17:04:20.123Z,90.00
2022-08-08T17:05:45.333Z,88.70
2022-08-08T17:07:07.854Z,88.10
2022-08-08T17:08:32.227Z,88.40
2022-08-08T17:09:54.776Z,88.00
2022-08-08T17:11:17.087Z,88.60
2022-08-08T17:12:52.565Z,88.70
2022-08-08T17:14:18.655Z,89.10
2022-08-08T17:15:41.970Z,89.50
2022-08-08T17:17:41.849Z,89.20
2022-08-08T17:18:56.705Z,89.50
2022-08-08T17:20:20.572Z,89.30
2022-08-08T17:21:46.889Z,89.30
2022-08-08T17:23:18.354Z,89.70
2022-08-08T17:24:53.770Z,89.90
2022-08-08T17:26:16.175Z,90.00
2022-08-08T17:27:53.972Z,90.10
2022-08-08T17:29:24.850Z,90.30
2022-08-08T17:30:47.447Z,90.40
2022-08-08T17:32:09.879Z,90.50
2022-08-08T17:34:54.038Z,90.60
2022-08-08T17:35:55.138Z,90.60
2022-08-08T17:37:01.195Z,90.40
2022-08-08T17:38:25.266Z,90.60
2022-08-08T17:40:05.823Z,90.80
2022-08-08T17:41:39.249Z,90.80
2022-08-08T17:43:03.261Z,91.00
2022-08-08T17:44:26.895Z,91.10
2022-08-08T17:45:50.663Z,91.00
2022-08-08T17:47:24.240Z,91.10
2022-08-08T17:48:50.140Z,91.20
2022-08-08T17:50:13.160Z,91.30
2022-08-08T17:51:39.718Z,91.10
2022-08-08T17:53:05.751Z,91.30
2022-08-08T17:54:29.310Z,91.30
2022-08-08T17:56:06.634Z,91.20
2022-08-08T17:57:35.323Z,91.30
2022-08-08T17:58:58.809Z,91.10
2022-08-08T18:00:30.162Z,91.40
2022-08-08T18:01:56.976Z,91.70
2022-08-08T18:03:19.130Z,92.40
2022-08-08T18:04:49.492Z,92.80
2022-08-08T18:06:30.557Z,92.80
2022-08-08T18:08:02.223Z,93.00
2022-08-08T18:09:27.662Z,93.10
2022-08-08T18:11:00.006Z,93.20
2022-08-08T18:12:22.655Z,93.30
2022-08-08T18:13:47.197Z,93.40
2022-08-08T18:15:10.372Z,93.50
2022-08-08T18:16:32.903Z,93.60
2022-08-08T18:18:04.959Z,93.60
2022-08-08T18:19:45.866Z,93.80
2022-08-08T18:21:24.847Z,93.90
2022-08-08T18:22:57.169Z,94.00
2022-08-08T18:24:22.032Z,94.00
2022-08-08T18:25:44.452Z,94.10
2022-08-08T18:27:17.106Z,94.20
2022-08-08T18:28:54.042Z,94.30
2022-08-08T18:30:17.368Z,94.40
2022-08-08T18:31:39.673Z,94.70
2022-08-08T18:33:02.097Z,94.50
2022-08-08T18:34:27.842Z,94.50
2022-08-08T18:35:50.359Z,94.60
2022-08-08T18:37:33.690Z,94.50
2022-08-08T18:38:55.203Z,94.50
2022-08-08T18:40:18.901Z,94.60
2022-08-08T18:42:03.581Z,94.70
2022-08-08T18:43:37.854Z,94.70
2022-08-08T18:45:08.857Z,94.70
2022-08-08T18:46:56.225Z,94.90
2022-08-08T18:48:20.173Z,94.90
2022-08-08T18:49:57.811Z,94.90
2022-08-08T18:51:48.306Z,95.00
2022-08-08T18:53:03.530Z,95.00
2022-08-08T18:54:29.773Z,95.00
2022-08-08T18:55:53.328Z,95.00
2022-08-08T18:57:17.385Z,95.10
2022-08-08T18:58:39.533Z,95.20
2022-08-08T19:00:03.049Z,95.10
2022-08-08T19:02:25.270Z,95.00
2022-08-08T19:03:09.555Z,95.10
2022-08-08T19:04:40.204Z,95.10
2022-08-08T19:06:03.050Z,95.10
2022-08-08T19:07:30.035Z,95.10
2022-08-08T19:08:55.863Z,95.10
2022-08-08T19:10:19.451Z,95.20
2022-08-08T19:11:46.306Z,95.20
2022-08-08T19:13:10.855Z,95.30
2022-08-08T19:14:43.186Z,95.30
2022-08-08T19:16:06.765Z,95.30
2022-08-08T19:18:33.134Z,95.40
2022-08-08T19:19:17.742Z,95.40
2022-08-08T19:20:46.472Z,95.40
2022-08-08T19:22:09.034Z,95.40
2022-08-08T19:23:35.392Z,95.40
2022-08-08T19:26:01.223Z,95.40
2022-08-08T19:26:39.969Z,95.50
2022-08-08T19:28:18.017Z,95.50
2022-08-08T19:29:46.033Z,95.50
2022-08-08T19:31:09.198Z,95.60
2022-08-08T19:32:31.819Z,95.70
2022-08-08T19:34:30.156Z,95.70
2022-08-08T19:35:45.489Z,95.80
2022-08-08T19:37:18.968Z,95.90
2022-08-08T19:39:01.210Z,95.90
2022-08-08T19:40:31.019Z,95.90
2022-08-08T19:41:54.982Z,96.00
2022-08-08T19:43:19.016Z,96.00
2022-08-08T19:44:46.331Z,96.10
2022-08-08T19:46:13.935Z,96.20
2022-08-08T19:47:36.438Z,96.20
2022-08-08T19:49:03.174Z,96.40
2022-08-08T19:50:27.172Z,96.70
2022-08-08T19:51:53.502Z,96.50
2022-08-08T19:53:22.258Z,96.60
2022-08-08T19:55:00.570Z,96.70
2022-08-08T19:56:39.947Z,96.70
2022-08-08T19:58:04.028Z,96.80
2022-08-08T19:59:29.736Z,96.90
2022-08-08T20:00:57.104Z,97.10
2022-08-08T20:02:19.631Z,97.20
2022-08-08T20:04:02.320Z,97.20
2022-08-08T20:06:15.177Z,97.30
2022-08-08T20:08:28.353Z,97.30
2022-08-08T20:08:54.355Z,97.40
2022-08-08T20:10:18.090Z,97.50
2022-08-08T20:11:43.100Z,97.60